sensor_id;sensor_type;location;lat;lon;timestamp;temperature;humidity
23713;DHT22;12035;49.978;8.298;2023-12-28T00:01:18;8.60;79.30
23713;DHT22;12035;49.978;8.298;2023-12-28T00:06:15;8.60;79.20
23713;DHT22;12035;49.978;8.298;2023-12-28T00:11:12;8.60;79.20
23713;DHT22;12035;49.978;8.298;2023-12-28T00:16:09;8.50;79.00
23713;DHT22;12035;49.978;8.298;2023-12-28T00:21:07;8.50;78.80
23713;DHT22;12035;49.978;8.298;2023-12-28T00:26:04;8.50;78.90
23713;DHT22;12035;49.978;8.298;2023-12-28T00:31:01;8.50;78.80
23713;DHT22;12035;49.978;8.298;2023-12-28T00:35:58;8.50;78.90
23713;DHT22;12035;49.978;8.298;2023-12-28T00:40:57;8.60;79.10
23713;DHT22;12035;49.978;8.298;2023-12-28T00:45:54;8.60;79.10
23713;DHT22;12035;49.978;8.298;2023-12-28T00:50:51;8.60;79.10
23713;DHT22;12035;49.978;8.298;2023-12-28T00:55:48;8.60;79.20
23713;DHT22;12035;49.978;8.298;2023-12-28T01:00:47;8.70;79.40
23713;DHT22;12035;49.978;8.298;2023-12-28T01:05:44;8.70;79.20
23713;DHT22;12035;49.978;8.298;2023-12-28T01:10:43;8.70;79.40
23713;DHT22;12035;49.978;8.298;2023-12-28T01:15:40;8.70;80.20
23713;DHT22;12035;49.978;8.298;2023-12-28T01:20:38;8.70;80.50
23713;DHT22;12035;49.978;8.298;2023-12-28T01:25:35;8.70;80.60
23713;DHT22;12035;49.978;8.298;2023-12-28T01:30:32;8.80;80.80
23713;DHT22;12035;49.978;8.298;2023-12-28T01:35:29;8.80;80.90
23713;DHT22;12035;49.978;8.298;2023-12-28T01:40:28;8.90;80.70
23713;DHT22;12035;49.978;8.298;2023-12-28T01:45:26;9.00;80.70
23713;DHT22;12035;49.978;8.298;2023-12-28T01:50:23;9.10;80.40
23713;DHT22;12035;49.978;8.298;2023-12-28T01:55:23;9.10;80.20
23713;DHT22;12035;49.978;8.298;2023-12-28T02:00:22;9.20;80.30
23713;DHT22;12035;49.978;8.298;2023-12-28T02:05:19;9.20;80.30
23713;DHT22;12035;49.978;8.298;2023-12-28T02:10:17;9.30;80.50
23713;DHT22;12035;49.978;8.298;2023-12-28T02:15:14;9.30;80.50
23713;DHT22;12035;49.978;8.298;2023-12-28T02:20:13;9.30;80.60
23713;DHT22;12035;49.978;8.298;2023-12-28T02:25:12;9.30;80.60
23713;DHT22;12035;49.978;8.298;2023-12-28T02:30:10;9.40;80.50
23713;DHT22;12035;49.978;8.298;2023-12-28T02:35:16;9.40;80.50
23713;DHT22;12035;49.978;8.298;2023-12-28T02:40:17;9.50;80.60
23713;DHT22;12035;49.978;8.298;2023-12-28T02:45:14;9.50;80.60
23713;DHT22;12035;49.978;8.298;2023-12-28T02:50:11;9.50;80.60
23713;DHT22;12035;49.978;8.298;2023-12-28T02:55:08;9.50;80.60
23713;DHT22;12035;49.978;8.298;2023-12-28T03:00:08;9.50;80.60
23713;DHT22;12035;49.978;8.298;2023-12-28T03:05:06;9.50;80.60
23713;DHT22;12035;49.978;8.298;2023-12-28T03:10:05;9.60;80.60
23713;DHT22;12035;49.978;8.298;2023-12-28T03:15:03;9.60;80.70
23713;DHT22;12035;49.978;8.298;2023-12-28T03:20:03;9.70;80.90
23713;DHT22;12035;49.978;8.298;2023-12-28T03:25:01;9.80;81.10
23713;DHT22;12035;49.978;8.298;2023-12-28T03:29:58;9.80;81.20
23713;DHT22;12035;49.978;8.298;2023-12-28T03:34:55;9.90;81.30
23713;DHT22;12035;49.978;8.298;2023-12-28T03:39:54;10.00;81.50
23713;DHT22;12035;49.978;8.298;2023-12-28T03:44:50;10.10;81.70
23713;DHT22;12035;49.978;8.298;2023-12-28T03:49:47;10.10;81.90
23713;DHT22;12035;49.978;8.298;2023-12-28T03:54:44;10.20;82.10
23713;DHT22;12035;49.978;8.298;2023-12-28T03:59:42;10.20;82.00
23713;DHT22;12035;49.978;8.298;2023-12-28T04:04:39;10.30;82.00
23713;DHT22;12035;49.978;8.298;2023-12-28T04:09:36;10.30;82.20
23713;DHT22;12035;49.978;8.298;2023-12-28T04:14:34;10.40;82.20
23713;DHT22;12035;49.978;8.298;2023-12-28T04:19:32;10.40;82.50
23713;DHT22;12035;49.978;8.298;2023-12-28T04:24:29;10.40;82.80
23713;DHT22;12035;49.978;8.298;2023-12-28T04:29:26;10.40;83.10
23713;DHT22;12035;49.978;8.298;2023-12-28T04:34:23;10.50;83.00
23713;DHT22;12035;49.978;8.298;2023-12-28T04:39:21;10.50;83.30
23713;DHT22;12035;49.978;8.298;2023-12-28T04:44:18;10.60;83.70
23713;DHT22;12035;49.978;8.298;2023-12-28T04:49:15;10.60;83.90
23713;DHT22;12035;49.978;8.298;2023-12-28T04:54:12;10.60;84.10
23713;DHT22;12035;49.978;8.298;2023-12-28T04:59:10;10.70;83.90
23713;DHT22;12035;49.978;8.298;2023-12-28T05:04:07;10.70;84.30
23713;DHT22;12035;49.978;8.298;2023-12-28T05:09:04;10.70;84.40
23713;DHT22;12035;49.978;8.298;2023-12-28T05:14:01;10.70;84.70
23713;DHT22;12035;49.978;8.298;2023-12-28T05:19:00;10.70;84.80
23713;DHT22;12035;49.978;8.298;2023-12-28T05:23:57;10.70;85.00
23713;DHT22;12035;49.978;8.298;2023-12-28T05:28:54;10.70;85.00
23713;DHT22;12035;49.978;8.298;2023-12-28T05:33:51;10.80;85.20
23713;DHT22;12035;49.978;8.298;2023-12-28T05:38:49;10.80;85.30
23713;DHT22;12035;49.978;8.298;2023-12-28T05:43:46;10.80;85.40
23713;DHT22;12035;49.978;8.298;2023-12-28T05:48:43;10.80;85.50
23713;DHT22;12035;49.978;8.298;2023-12-28T05:53:40;10.80;85.60
23713;DHT22;12035;49.978;8.298;2023-12-28T05:58:39;10.80;85.70
23713;DHT22;12035;49.978;8.298;2023-12-28T06:03:36;10.80;85.70
23713;DHT22;12035;49.978;8.298;2023-12-28T06:08:34;10.80;85.80
23713;DHT22;12035;49.978;8.298;2023-12-28T06:13:31;10.80;85.80
23713;DHT22;12035;49.978;8.298;2023-12-28T06:18:29;10.80;85.90
23713;DHT22;12035;49.978;8.298;2023-12-28T06:23:26;10.80;86.20
23713;DHT22;12035;49.978;8.298;2023-12-28T06:28:23;10.70;86.20
23713;DHT22;12035;49.978;8.298;2023-12-28T06:33:20;10.70;86.50
23713;DHT22;12035;49.978;8.298;2023-12-28T06:38:18;10.70;86.50
23713;DHT22;12035;49.978;8.298;2023-12-28T06:43:15;10.70;86.70
23713;DHT22;12035;49.978;8.298;2023-12-28T06:48:12;10.70;86.60
23713;DHT22;12035;49.978;8.298;2023-12-28T06:53:09;10.70;86.30
23713;DHT22;12035;49.978;8.298;2023-12-28T06:58:07;10.70;86.50
23713;DHT22;12035;49.978;8.298;2023-12-28T07:03:04;10.70;86.20
23713;DHT22;12035;49.978;8.298;2023-12-28T07:08:01;10.70;86.50
23713;DHT22;12035;49.978;8.298;2023-12-28T07:12:58;10.70;86.90
23713;DHT22;12035;49.978;8.298;2023-12-28T07:17:56;10.70;87.00
23713;DHT22;12035;49.978;8.298;2023-12-28T07:22:53;10.80;87.00
23713;DHT22;12035;49.978;8.298;2023-12-28T07:27:50;10.80;87.10
23713;DHT22;12035;49.978;8.298;2023-12-28T07:32:47;10.80;86.90
23713;DHT22;12035;49.978;8.298;2023-12-28T07:37:45;10.80;87.00
23713;DHT22;12035;49.978;8.298;2023-12-28T07:42:42;10.80;87.30
23713;DHT22;12035;49.978;8.298;2023-12-28T07:47:39;10.80;87.30
23713;DHT22;12035;49.978;8.298;2023-12-28T07:52:36;10.80;87.50
23713;DHT22;12035;49.978;8.298;2023-12-28T07:57:35;10.80;87.50
23713;DHT22;12035;49.978;8.298;2023-12-28T08:02:33;10.80;87.60
23713;DHT22;12035;49.978;8.298;2023-12-28T08:07:30;10.80;87.60
23713;DHT22;12035;49.978;8.298;2023-12-28T08:12:27;10.80;87.70
23713;DHT22;12035;49.978;8.298;2023-12-28T08:17:25;10.80;87.80
23713;DHT22;12035;49.978;8.298;2023-12-28T08:22:22;10.80;88.20
23713;DHT22;12035;49.978;8.298;2023-12-28T08:27:19;10.80;87.80
23713;DHT22;12035;49.978;8.298;2023-12-28T08:32:16;10.80;88.00
23713;DHT22;12035;49.978;8.298;2023-12-28T08:37:14;10.80;88.10
23713;DHT22;12035;49.978;8.298;2023-12-28T08:42:11;10.90;87.80
23713;DHT22;12035;49.978;8.298;2023-12-28T08:47:08;10.90;88.00
23713;DHT22;12035;49.978;8.298;2023-12-28T08:52:05;10.90;88.10
23713;DHT22;12035;49.978;8.298;2023-12-28T08:57:03;11.00;87.80
23713;DHT22;12035;49.978;8.298;2023-12-28T09:02:01;11.00;87.80
23713;DHT22;12035;49.978;8.298;2023-12-28T09:06:58;11.10;87.90
23713;DHT22;12035;49.978;8.298;2023-12-28T09:11:55;11.10;87.80
23713;DHT22;12035;49.978;8.298;2023-12-28T09:16:53;11.20;87.80
23713;DHT22;12035;49.978;8.298;2023-12-28T09:21:50;11.20;87.60
23713;DHT22;12035;49.978;8.298;2023-12-28T09:26:47;11.30;87.50
23713;DHT22;12035;49.978;8.298;2023-12-28T09:31:45;11.40;87.40
23713;DHT22;12035;49.978;8.298;2023-12-28T09:36:44;11.50;87.30
23713;DHT22;12035;49.978;8.298;2023-12-28T09:41:43;11.60;86.90
23713;DHT22;12035;49.978;8.298;2023-12-28T09:46:46;11.60;86.50
23713;DHT22;12035;49.978;8.298;2023-12-28T09:51:44;11.70;86.30
23713;DHT22;12035;49.978;8.298;2023-12-28T09:56:42;11.80;86.10
23713;DHT22;12035;49.978;8.298;2023-12-28T10:01:39;11.90;86.00
23713;DHT22;12035;49.978;8.298;2023-12-28T10:06:36;12.00;85.40
23713;DHT22;12035;49.978;8.298;2023-12-28T10:11:35;12.00;85.00
23713;DHT22;12035;49.978;8.298;2023-12-28T10:16:32;12.10;84.90
23713;DHT22;12035;49.978;8.298;2023-12-28T10:21:29;12.20;84.90
23713;DHT22;12035;49.978;8.298;2023-12-28T10:26:27;12.30;84.80
23713;DHT22;12035;49.978;8.298;2023-12-28T10:31:25;12.50;84.60
23713;DHT22;12035;49.978;8.298;2023-12-28T10:36:22;12.80;84.10
23713;DHT22;12035;49.978;8.298;2023-12-28T10:41:20;13.00;83.70
23713;DHT22;12035;49.978;8.298;2023-12-28T10:46:25;13.20;82.90
23713;DHT22;12035;49.978;8.298;2023-12-28T10:51:25;13.40;81.80
23713;DHT22;12035;49.978;8.298;2023-12-28T10:56:33;13.60;81.50
23713;DHT22;12035;49.978;8.298;2023-12-28T11:01:37;13.80;80.80
23713;DHT22;12035;49.978;8.298;2023-12-28T11:06:37;14.00;80.10
23713;DHT22;12035;49.978;8.298;2023-12-28T11:11:35;14.10;80.00
23713;DHT22;12035;49.978;8.298;2023-12-28T11:16:34;14.30;79.40
23713;DHT22;12035;49.978;8.298;2023-12-28T11:21:34;14.50;79.10
23713;DHT22;12035;49.978;8.298;2023-12-28T11:26:32;14.70;78.40
23713;DHT22;12035;49.978;8.298;2023-12-28T11:31:32;14.90;77.30
23713;DHT22;12035;49.978;8.298;2023-12-28T11:36:33;15.00;75.40
23713;DHT22;12035;49.978;8.298;2023-12-28T11:41:32;15.20;75.20
23713;DHT22;12035;49.978;8.298;2023-12-28T11:46:29;15.20;73.90
23713;DHT22;12035;49.978;8.298;2023-12-28T11:51:28;15.30;73.80
23713;DHT22;12035;49.978;8.298;2023-12-28T11:56:25;15.40;74.30
23713;DHT22;12035;49.978;8.298;2023-12-28T12:01:22;15.40;73.50
23713;DHT22;12035;49.978;8.298;2023-12-28T12:06:19;15.50;73.30
23713;DHT22;12035;49.978;8.298;2023-12-28T12:11:17;15.60;72.60
23713;DHT22;12035;49.978;8.298;2023-12-28T12:16:15;15.60;72.40
23713;DHT22;12035;49.978;8.298;2023-12-28T12:21:12;15.70;71.40
23713;DHT22;12035;49.978;8.298;2023-12-28T12:26:09;15.70;71.30
23713;DHT22;12035;49.978;8.298;2023-12-28T12:31:07;15.60;71.30
23713;DHT22;12035;49.978;8.298;2023-12-28T12:36:06;15.60;71.30
23713;DHT22;12035;49.978;8.298;2023-12-28T12:41:03;15.60;71.90
23713;DHT22;12035;49.978;8.298;2023-12-28T12:46:00;15.50;72.20
23713;DHT22;12035;49.978;8.298;2023-12-28T12:51:02;15.50;72.20
23713;DHT22;12035;49.978;8.298;2023-12-28T12:55:59;15.50;71.80
23713;DHT22;12035;49.978;8.298;2023-12-28T13:00:56;15.50;72.20
23713;DHT22;12035;49.978;8.298;2023-12-28T13:05:53;15.40;72.20
23713;DHT22;12035;49.978;8.298;2023-12-28T13:10:53;15.30;72.10
23713;DHT22;12035;49.978;8.298;2023-12-28T13:15:50;15.20;72.20
23713;DHT22;12035;49.978;8.298;2023-12-28T13:20:47;15.10;72.50
23713;DHT22;12035;49.978;8.298;2023-12-28T13:25:44;14.90;73.00
23713;DHT22;12035;49.978;8.298;2023-12-28T13:30:42;14.80;73.30
23713;DHT22;12035;49.978;8.298;2023-12-28T13:35:39;14.70;73.90
23713;DHT22;12035;49.978;8.298;2023-12-28T13:40:36;14.70;74.40
23713;DHT22;12035;49.978;8.298;2023-12-28T13:45:33;14.60;74.70
23713;DHT22;12035;49.978;8.298;2023-12-28T13:50:32;14.60;74.60
23713;DHT22;12035;49.978;8.298;2023-12-28T13:55:29;14.50;74.80
23713;DHT22;12035;49.978;8.298;2023-12-28T14:00:26;14.50;75.20
23713;DHT22;12035;49.978;8.298;2023-12-28T14:05:23;14.40;75.40
23713;DHT22;12035;49.978;8.298;2023-12-28T14:10:21;14.40;75.60
23713;DHT22;12035;49.978;8.298;2023-12-28T14:15:18;14.30;75.80
23713;DHT22;12035;49.978;8.298;2023-12-28T14:20:15;14.20;76.20
23713;DHT22;12035;49.978;8.298;2023-12-28T14:25:14;14.10;76.60
23713;DHT22;12035;49.978;8.298;2023-12-28T14:30:14;14.10;76.90
23713;DHT22;12035;49.978;8.298;2023-12-28T14:35:13;14.00;77.10
23713;DHT22;12035;49.978;8.298;2023-12-28T14:40:12;13.90;77.40
23713;DHT22;12035;49.978;8.298;2023-12-28T14:45:09;13.90;77.70
23713;DHT22;12035;49.978;8.298;2023-12-28T14:50:08;13.80;78.10
23713;DHT22;12035;49.978;8.298;2023-12-28T14:55:06;13.70;78.40
23713;DHT22;12035;49.978;8.298;2023-12-28T15:00:04;13.60;78.70
23713;DHT22;12035;49.978;8.298;2023-12-28T15:05:02;13.60;78.80
23713;DHT22;12035;49.978;8.298;2023-12-28T15:10:02;13.50;78.80
23713;DHT22;12035;49.978;8.298;2023-12-28T15:15:00;13.50;79.00
23713;DHT22;12035;49.978;8.298;2023-12-28T15:19:58;13.40;78.90
23713;DHT22;12035;49.978;8.298;2023-12-28T15:24:55;13.30;79.00
23713;DHT22;12035;49.978;8.298;2023-12-28T15:29:55;13.20;79.10
23713;DHT22;12035;49.978;8.298;2023-12-28T15:34:52;13.20;79.30
23713;DHT22;12035;49.978;8.298;2023-12-28T15:39:49;13.10;79.20
23713;DHT22;12035;49.978;8.298;2023-12-28T15:44:46;13.10;79.10
23713;DHT22;12035;49.978;8.298;2023-12-28T15:49:44;13.00;79.30
23713;DHT22;12035;49.978;8.298;2023-12-28T15:54:41;12.90;79.50
23713;DHT22;12035;49.978;8.298;2023-12-28T15:59:38;12.90;79.50
23713;DHT22;12035;49.978;8.298;2023-12-28T16:04:35;12.80;79.60
23713;DHT22;12035;49.978;8.298;2023-12-28T16:09:34;12.80;79.80
23713;DHT22;12035;49.978;8.298;2023-12-28T16:14:31;12.70;79.80
23713;DHT22;12035;49.978;8.298;2023-12-28T16:19:29;12.70;79.80
23713;DHT22;12035;49.978;8.298;2023-12-28T16:24:26;12.60;79.90
23713;DHT22;12035;49.978;8.298;2023-12-28T16:29:24;12.50;79.90
23713;DHT22;12035;49.978;8.298;2023-12-28T16:34:21;12.50;80.20
23713;DHT22;12035;49.978;8.298;2023-12-28T16:39:18;12.40;80.30
23713;DHT22;12035;49.978;8.298;2023-12-28T16:44:15;12.40;80.50
23713;DHT22;12035;49.978;8.298;2023-12-28T16:49:14;12.40;80.60
23713;DHT22;12035;49.978;8.298;2023-12-28T16:54:11;12.40;80.90
23713;DHT22;12035;49.978;8.298;2023-12-28T16:59:09;12.40;80.60
23713;DHT22;12035;49.978;8.298;2023-12-28T17:04:06;12.40;80.60
23713;DHT22;12035;49.978;8.298;2023-12-28T17:09:05;12.40;80.60
23713;DHT22;12035;49.978;8.298;2023-12-28T17:14:05;12.30;80.60
23713;DHT22;12035;49.978;8.298;2023-12-28T17:19:03;12.30;80.70
23713;DHT22;12035;49.978;8.298;2023-12-28T17:24:01;12.30;80.80
23713;DHT22;12035;49.978;8.298;2023-12-28T17:29:05;12.20;80.80
23713;DHT22;12035;49.978;8.298;2023-12-28T17:34:03;12.20;80.90
23713;DHT22;12035;49.978;8.298;2023-12-28T17:39:02;12.20;80.80
23713;DHT22;12035;49.978;8.298;2023-12-28T17:44:06;12.20;80.80
23713;DHT22;12035;49.978;8.298;2023-12-28T17:49:06;12.10;80.90
23713;DHT22;12035;49.978;8.298;2023-12-28T17:54:07;12.10;81.00
23713;DHT22;12035;49.978;8.298;2023-12-28T17:59:05;12.00;81.20
23713;DHT22;12035;49.978;8.298;2023-12-28T18:04:03;12.00;81.40
23713;DHT22;12035;49.978;8.298;2023-12-28T18:09:00;11.90;81.50
23713;DHT22;12035;49.978;8.298;2023-12-28T18:13:57;12.00;81.60
23713;DHT22;12035;49.978;8.298;2023-12-28T18:18:55;12.00;81.70
23713;DHT22;12035;49.978;8.298;2023-12-28T18:23:55;11.90;81.80
23713;DHT22;12035;49.978;8.298;2023-12-28T18:28:52;11.90;81.80
23713;DHT22;12035;49.978;8.298;2023-12-28T18:33:48;12.00;82.00
23713;DHT22;12035;49.978;8.298;2023-12-28T18:38:47;12.00;81.70
23713;DHT22;12035;49.978;8.298;2023-12-28T18:43:44;12.00;82.00
23713;DHT22;12035;49.978;8.298;2023-12-28T18:48:41;12.00;82.20
23713;DHT22;12035;49.978;8.298;2023-12-28T18:53:38;11.90;82.30
23713;DHT22;12035;49.978;8.298;2023-12-28T18:58:40;11.90;82.50
23713;DHT22;12035;49.978;8.298;2023-12-28T19:03:37;11.90;82.70
23713;DHT22;12035;49.978;8.298;2023-12-28T19:08:34;11.90;82.70
23713;DHT22;12035;49.978;8.298;2023-12-28T19:13:31;11.90;82.80
23713;DHT22;12035;49.978;8.298;2023-12-28T19:18:29;11.90;82.80
23713;DHT22;12035;49.978;8.298;2023-12-28T19:23:26;11.90;82.80
23713;DHT22;12035;49.978;8.298;2023-12-28T19:28:23;11.90;82.80
23713;DHT22;12035;49.978;8.298;2023-12-28T19:33:20;12.00;82.90
23713;DHT22;12035;49.978;8.298;2023-12-28T19:38:19;12.00;82.60
23713;DHT22;12035;49.978;8.298;2023-12-28T19:43:16;12.00;82.90
23713;DHT22;12035;49.978;8.298;2023-12-28T19:48:13;12.00;83.10
23713;DHT22;12035;49.978;8.298;2023-12-28T19:53:10;11.90;83.20
23713;DHT22;12035;49.978;8.298;2023-12-28T19:58:10;11.90;83.30
23713;DHT22;12035;49.978;8.298;2023-12-28T20:03:07;11.90;83.40
23713;DHT22;12035;49.978;8.298;2023-12-28T20:08:04;11.90;83.40
23713;DHT22;12035;49.978;8.298;2023-12-28T20:13:03;11.90;83.30
23713;DHT22;12035;49.978;8.298;2023-12-28T20:18:01;11.90;83.70
23713;DHT22;12035;49.978;8.298;2023-12-28T20:22:59;11.90;83.90
23713;DHT22;12035;49.978;8.298;2023-12-28T20:27:56;11.80;83.80
23713;DHT22;12035;49.978;8.298;2023-12-28T20:32:56;11.80;83.90
23713;DHT22;12035;49.978;8.298;2023-12-28T20:37:55;11.80;83.90
23713;DHT22;12035;49.978;8.298;2023-12-28T20:42:52;11.70;84.00
23713;DHT22;12035;49.978;8.298;2023-12-28T20:47:49;11.60;84.00
23713;DHT22;12035;49.978;8.298;2023-12-28T20:52:45;11.60;84.30
23713;DHT22;12035;49.978;8.298;2023-12-28T20:57:44;11.50;84.60
23713;DHT22;12035;49.978;8.298;2023-12-28T21:02:41;11.50;84.80
23713;DHT22;12035;49.978;8.298;2023-12-28T21:07:39;11.50;84.80
23713;DHT22;12035;49.978;8.298;2023-12-28T21:12:36;11.50;84.90
23713;DHT22;12035;49.978;8.298;2023-12-28T21:17:34;11.50;85.00
23713;DHT22;12035;49.978;8.298;2023-12-28T21:22:31;11.60;85.20
23713;DHT22;12035;49.978;8.298;2023-12-28T21:27:28;11.60;85.20
23713;DHT22;12035;49.978;8.298;2023-12-28T21:32:25;11.60;85.20
23713;DHT22;12035;49.978;8.298;2023-12-28T21:37:23;11.70;85.00
23713;DHT22;12035;49.978;8.298;2023-12-28T21:42:21;11.60;84.80
23713;DHT22;12035;49.978;8.298;2023-12-28T21:47:18;11.60;85.20
23713;DHT22;12035;49.978;8.298;2023-12-28T21:52:15;11.60;85.60
23713;DHT22;12035;49.978;8.298;2023-12-28T21:57:13;11.60;85.80
23713;DHT22;12035;49.978;8.298;2023-12-28T22:02:10;11.60;86.10
23713;DHT22;12035;49.978;8.298;2023-12-28T22:07:08;11.60;87.10
23713;DHT22;12035;49.978;8.298;2023-12-28T22:12:06;11.60;86.30
23713;DHT22;12035;49.978;8.298;2023-12-28T22:17:04;11.70;86.60
23713;DHT22;12035;49.978;8.298;2023-12-28T22:22:01;11.70;86.80
23713;DHT22;12035;49.978;8.298;2023-12-28T22:26:58;11.70;86.70
23713;DHT22;12035;49.978;8.298;2023-12-28T22:31:55;11.80;86.80
23713;DHT22;12035;49.978;8.298;2023-12-28T22:36:54;11.80;86.90
23713;DHT22;12035;49.978;8.298;2023-12-28T22:41:51;11.80;87.10
23713;DHT22;12035;49.978;8.298;2023-12-28T22:46:48;11.80;87.10
23713;DHT22;12035;49.978;8.298;2023-12-28T22:51:45;11.70;86.90
23713;DHT22;12035;49.978;8.298;2023-12-28T22:56:45;11.70;87.10
23713;DHT22;12035;49.978;8.298;2023-12-28T23:01:43;11.70;87.30
23713;DHT22;12035;49.978;8.298;2023-12-28T23:06:40;11.70;87.30
23713;DHT22;12035;49.978;8.298;2023-12-28T23:11:37;11.70;87.40
23713;DHT22;12035;49.978;8.298;2023-12-28T23:16:36;11.70;87.40
23713;DHT22;12035;49.978;8.298;2023-12-28T23:21:33;11.70;87.40
23713;DHT22;12035;49.978;8.298;2023-12-28T23:26:30;11.70;87.30
23713;DHT22;12035;49.978;8.298;2023-12-28T23:31:27;11.70;87.20
23713;DHT22;12035;49.978;8.298;2023-12-28T23:36:26;11.70;87.00
23713;DHT22;12035;49.978;8.298;2023-12-28T23:41:23;11.70;87.60
23713;DHT22;12035;49.978;8.298;2023-12-28T23:46:20;11.60;86.70
23713;DHT22;12035;49.978;8.298;2023-12-28T23:51:17;11.60;86.60
23713;DHT22;12035;49.978;8.298;2023-12-28T23:56:18;11.60;86.50
